San Antonio International Airport
KSAT : now visible

Airfield :











YOU CAN JOIN US ON...

 
LOGIN :

Register | Disclaimer

   EN    FR    IT 

 









Legend :    VFR   Marginal VFR   IFR   Intensive IFR   Very Intensive IFR
Visi :
Ceiling :
>= 8 km
>= 3000ft
5 to 8 km
1000 to 3000 ft
1500m to 5 km
500 to 1000 ft
800 to 1500m
200 to 500 ft
< 800m
< 200 ft
Symbols :   Thunderstorms  Fog  Heavy snow  Heavy precipitations  Wind > 20 kt






- Airport Elevation : 809 ft
- IATA code : SAT


KSAT - San Antonio International

CURRENT METAR :
  • 081851Z VRB04KT 10SM SCT038 BKN250 31/22 A2990 RMK AO2 SLP107 TCU DSNT NE T03110222

EXPIRED METARs :
  • 081751Z VRB05KT 10SM SCT026 BKN250 31/23 A2993 RMK AO2 SLP117 T03060228 10306 20217 58010
  • 081651Z 25009KT 9SM SCT020 BKN240 29/23 A2995 RMK AO2 SLP125 T02890228
  • 081617Z 26004KT 8SM SCT017 BKN240 27/22 A2996 RMK AO2 SCT V BKN T02720222

TAF KSAT
Valid from the 08 at 18:00 until the 10 at 00:00 UTC


081720Z 0818/0924 23007KT P6SM VCSH SCT040 BKN250
FM090100 16005KT P6SM BKN250
FM090900 VRB03KT 5SM BR OVC015
FM091400 VRB04KT P6SM SCT015 OVC100



MET'MAP, your aeronautical weather chart ! - Copyright ORBIFLY December 2007 - Disclaimer

ORBIFLY MET'MAP TEAM :

Programming & Development : Alexandra Zaïnal
Concept & original design : Baudouin d'Aumeries
Assistance for programming : Marc-Olivier Méhu
Technical & hardware support : Manuel Goepfert

Contact : metmap@orbifly.com




SOURCES & CREDITS :

   NOAA       Earth
Advisory